Time;durP1;ratioP1;P1;durP2;ratioP2;P2;SDS_P1;SDS_P2;PMS_P1;PMS_P2;Temp;Humidity;BMP_temperature;BMP_pressure;BME280_temperature;BME280_humidity;BME280_pressure;Samples;Min_cycle;Max_cycle;Signal;HPM_P1;HPM_P2
2022/04/25 00:02:21;;;;;;;16.42;14.82;;;10.10;99.90;;;;;;4945296;28;20034;-75
2022/04/25 00:04:47;;;;;;;17.17;14.90;;;10.10;99.90;;;;;;4955445;28;20027;-76
2022/04/25 00:07:12;;;;;;;17.38;15.57;;;10.10;99.90;;;;;;4952236;28;20062;-76
2022/04/25 00:09:38;;;;;;;17.55;15.68;;;10.10;99.90;;;;;;4936106;28;20035;-76
2022/04/25 00:12:04;;;;;;;17.73;16.02;;;10.10;99.90;;;;;;4952966;28;20035;-76
2022/04/25 00:14:30;;;;;;;17.70;15.80;;;10.10;99.90;;;;;;4948595;28;20050;-76
2022/04/25 00:16:56;;;;;;;16.52;14.88;;;10.10;99.90;;;;;;4945568;29;20461;-77
2022/04/25 00:19:25;;;;;;;18.10;16.17;;;10.10;99.90;;;;;;4958756;28;20106;-76
2022/04/25 00:21:51;;;;;;;17.92;15.93;;;10.10;99.90;;;;;;4957845;28;20054;-76
2022/04/25 00:24:17;;;;;;;18.63;16.73;;;10.10;99.90;;;;;;4941632;28;20031;-76
2022/04/25 00:26:43;;;;;;;18.85;16.23;;;10.00;99.90;;;;;;4957123;28;20043;-76
2022/04/25 00:29:09;;;;;;;19.88;17.63;;;10.00;99.90;;;;;;4959211;28;20035;-76
2022/04/25 00:31:34;;;;;;;20.20;18.08;;;10.00;99.90;;;;;;4957100;28;20024;-76
2022/04/25 00:34:00;;;;;;;19.83;17.83;;;10.10;99.90;;;;;;4939169;29;20035;-76
2022/04/25 00:36:25;;;;;;;20.92;18.77;;;10.00;99.90;;;;;;4954839;28;20144;-76
2022/04/25 00:38:51;;;;;;;21.48;19.30;;;10.10;99.90;;;;;;4955489;28;20573;-76
2022/04/25 00:41:16;;;;;;;20.83;18.05;;;10.00;99.90;;;;;;4942800;28;20054;-75
2022/04/25 00:43:42;;;;;;;19.45;17.45;;;10.00;99.90;;;;;;4956735;28;20119;-76
2022/04/25 00:46:23;;;;;;;20.38;18.27;;;10.00;99.90;;;;;;4944051;28;20078;-76
2022/04/25 00:48:49;;;;;;;20.65;18.65;;;10.00;99.90;;;;;;4957406;28;20019;-76
2022/04/25 00:51:15;;;;;;;20.95;18.85;;;10.00;99.90;;;;;;4958808;28;20059;-76
2022/04/25 00:53:43;;;;;;;19.67;17.75;;;10.00;99.90;;;;;;4960713;28;20482;-75
2022/04/25 00:56:12;;;;;;;20.80;18.80;;;9.90;99.90;;;;;;4947416;28;20050;-76
2022/04/25 00:58:38;;;;;;;21.00;18.90;;;9.90;99.90;;;;;;4943364;29;20030;-75
2022/04/25 01:01:03;;;;;;;20.38;18.45;;;9.80;99.90;;;;;;4958957;28;20023;-76
2022/04/25 01:03:30;;;;;;;22.55;20.20;;;9.80;99.90;;;;;;4959087;28;20502;-75
2022/04/25 01:05:56;;;;;;;21.95;19.73;;;9.70;99.90;;;;;;4965721;28;20173;-75
2022/04/25 01:08:21;;;;;;;22.65;20.40;;;9.60;99.90;;;;;;4949134;28;20110;-77
2022/04/25 01:10:47;;;;;;;22.35;20.13;;;9.60;99.90;;;;;;4955376;28;20109;-77
2022/04/25 01:13:13;;;;;;;23.80;21.30;;;9.60;99.90;;;;;;4950736;28;20041;-76
2022/04/25 01:15:39;;;;;;;25.05;22.25;;;9.50;99.90;;;;;;4956118;28;20069;-76
2022/04/25 01:18:05;;;;;;;22.90;20.50;;;9.50;99.90;;;;;;4956761;28;20031;-77
2022/04/25 01:20:31;;;;;;;24.58;21.98;;;9.40;99.90;;;;;;4941645;28;20081;-75
2022/04/25 01:27:15;;;;;;;23.48;21.15;;;9.40;99.90;;;;;;4948216;28;20035;-76
2022/04/25 01:28:37;;;;;;;26.00;21.95;;;9.40;99.90;;;;;;4954776;28;20059;-74
2022/04/25 01:31:03;;;;;;;24.48;21.95;;;9.40;99.90;;;;;;4945768;29;20027;-76
2022/04/25 01:33:29;;;;;;;24.33;22.02;;;9.40;99.90;;;;;;4956259;28;20470;-76
2022/04/25 01:35:55;;;;;;;25.40;22.83;;;9.40;99.90;;;;;;4961476;28;20036;-76
2022/04/25 01:38:21;;;;;;;24.90;22.27;;;9.40;99.90;;;;;;4957619;28;20050;-76
2022/04/25 01:40:47;;;;;;;24.98;22.48;;;9.40;99.90;;;;;;4956426;28;20027;-76
2022/04/25 01:43:12;;;;;;;24.83;22.33;;;9.40;99.90;;;;;;4955254;28;20146;-76
2022/04/25 01:45:40;;;;;;;25.38;22.77;;;9.40;99.90;;;;;;4962925;28;20070;-77
2022/04/25 01:48:06;;;;;;;24.90;22.33;;;9.40;99.90;;;;;;4956190;28;20405;-75
2022/04/25 01:50:31;;;;;;;25.17;22.60;;;9.40;99.90;;;;;;4964356;28;20034;-75
2022/04/25 01:52:57;;;;;;;24.38;21.98;;;9.40;99.90;;;;;;4957612;28;20034;-76
2022/04/25 01:55:23;;;;;;;25.35;22.85;;;9.40;99.90;;;;;;4955660;28;20023;-76
2022/04/25 01:57:48;;;;;;;25.30;22.70;;;9.40;99.90;;;;;;4937430;29;20073;-76
2022/04/25 02:00:14;;;;;;;25.75;23.05;;;9.40;99.90;;;;;;4965161;28;20071;-76
2022/04/25 02:02:39;;;;;;;24.67;22.17;;;9.40;99.90;;;;;;4955845;28;20078;-76
2022/04/25 02:05:06;;;;;;;23.88;21.48;;;9.40;99.90;;;;;;4949695;28;20090;-76
2022/04/25 02:07:32;;;;;;;27.63;23.50;;;9.40;99.90;;;;;;4954666;29;20028;-76
2022/04/25 02:09:57;;;;;;;24.35;21.83;;;9.40;99.90;;;;;;4954239;28;20058;-76
2022/04/25 02:12:23;;;;;;;24.70;22.23;;;9.40;99.90;;;;;;4954470;28;20039;-76
2022/04/25 02:14:49;;;;;;;27.63;23.00;;;9.40;99.90;;;;;;4960982;28;20029;-76
2022/04/25 02:17:15;;;;;;;25.88;23.25;;;9.40;99.90;;;;;;4956237;28;20484;-76
2022/04/25 02:19:43;;;;;;;25.52;22.25;;;9.40;99.90;;;;;;4956185;28;20090;-75
2022/04/25 02:22:10;;;;;;;26.15;23.60;;;9.40;99.90;;;;;;4934584;28;20122;-76
2022/04/25 02:24:36;;;;;;;24.70;22.30;;;9.40;99.90;;;;;;4957676;28;20443;-77
2022/04/25 02:27:05;;;;;;;25.65;22.85;;;9.40;99.90;;;;;;4964839;28;20512;-76
2022/04/25 02:29:37;;;;;;;24.83;21.98;;;9.50;99.90;;;;;;4954448;28;20023;-77
2022/04/25 02:32:03;;;;;;;24.95;22.25;;;9.50;99.90;;;;;;4934745;28;20087;-76
2022/04/25 02:34:29;;;;;;;27.13;24.42;;;9.40;99.90;;;;;;4950056;28;20032;-76
2022/04/25 02:36:56;;;;;;;24.98;22.52;;;9.50;99.90;;;;;;4954277;28;20425;-75
2022/04/25 02:39:22;;;;;;;24.95;22.35;;;9.50;99.90;;;;;;4951592;28;20393;-77
2022/04/25 02:41:48;;;;;;;24.15;21.55;;;9.40;99.90;;;;;;4953627;28;20033;-76
2022/04/25 02:44:14;;;;;;;24.83;22.23;;;9.50;99.90;;;;;;4957579;28;20035;-76
2022/04/25 02:46:39;;;;;;;25.38;22.80;;;9.40;99.90;;;;;;4951001;28;20046;-75
2022/04/25 02:49:05;;;;;;;25.77;23.17;;;9.40;99.90;;;;;;4940790;28;20038;-77
2022/04/25 02:51:30;;;;;;;25.55;23.05;;;9.40;99.90;;;;;;4949927;28;20082;-76
2022/04/25 02:53:56;;;;;;;26.20;23.48;;;9.40;99.90;;;;;;4958289;28;20034;-76
2022/04/25 02:56:21;;;;;;;24.58;22.13;;;9.40;99.90;;;;;;4950282;28;20024;-76
2022/04/25 02:58:47;;;;;;;25.08;22.25;;;9.40;99.90;;;;;;4936275;28;20421;-76
2022/04/25 03:01:13;;;;;;;25.85;23.10;;;9.50;99.90;;;;;;4957374;28;20110;-76
2022/04/25 03:03:39;;;;;;;25.33;22.77;;;9.50;99.90;;;;;;4950514;28;20031;-76
2022/04/25 03:06:06;;;;;;;24.20;21.80;;;9.40;99.90;;;;;;4936162;28;20022;-77
2022/04/25 03:08:34;;;;;;;24.67;22.25;;;9.40;99.90;;;;;;4934748;29;20478;-76
2022/04/25 03:11:02;;;;;;;26.50;23.80;;;9.40;99.90;;;;;;4949210;29;20026;-75
2022/04/25 03:13:27;;;;;;;24.20;21.70;;;9.40;99.90;;;;;;4947992;28;20102;-76
2022/04/25 03:15:53;;;;;;;23.70;21.23;;;9.40;99.90;;;;;;4952000;28;20111;-75
2022/04/25 03:18:19;;;;;;;25.85;23.25;;;9.30;99.90;;;;;;4955849;28;20019;-76
2022/04/25 03:20:48;;;;;;;24.00;21.50;;;9.30;99.90;;;;;;4953775;28;20031;-75
2022/04/25 03:23:14;;;;;;;25.45;22.80;;;9.20;99.90;;;;;;4936829;29;20036;-75
2022/04/25 03:25:40;;;;;;;24.40;21.92;;;9.10;99.90;;;;;;4952943;28;20023;-76
2022/04/25 03:28:06;;;;;;;26.00;23.38;;;9.00;99.90;;;;;;4956579;28;20031;-76
2022/04/25 03:30:32;;;;;;;25.45;22.75;;;8.90;99.90;;;;;;4951231;28;20391;-76
2022/04/25 03:32:58;;;;;;;26.95;24.05;;;8.80;99.90;;;;;;4952614;28;20034;-76
2022/04/25 03:35:24;;;;;;;26.15;23.45;;;8.80;99.90;;;;;;4952143;28;20024;-76
2022/04/25 03:37:51;;;;;;;27.85;24.25;;;8.70;99.90;;;;;;4950825;28;20048;-75
2022/04/25 03:40:18;;;;;;;26.38;23.58;;;8.60;99.90;;;;;;4940044;28;20030;-76
2022/04/25 03:42:44;;;;;;;28.25;24.83;;;8.60;99.90;;;;;;4951278;28;20046;-76
2022/04/25 03:45:10;;;;;;;28.20;25.20;;;8.60;99.90;;;;;;4953104;28;20038;-77
2022/04/25 03:47:37;;;;;;;28.13;24.45;;;8.70;99.90;;;;;;4953779;28;20039;-76
2022/04/25 03:50:05;;;;;;;27.30;24.40;;;8.70;99.90;;;;;;4957909;28;20098;-76
2022/04/25 03:52:30;;;;;;;28.00;23.40;;;8.70;99.90;;;;;;4958844;28;20028;-76
2022/04/25 03:57:40;;;;;;;27.27;24.50;;;8.80;99.90;;;;;;4953370;28;20042;-75
2022/04/25 04:00:07;;;;;;;27.95;24.98;;;8.70;99.90;;;;;;4958574;28;20430;-76
2022/04/25 04:02:33;;;;;;;26.85;24.02;;;8.70;99.90;;;;;;4945829;29;20027;-75
2022/04/25 04:05:00;;;;;;;28.30;24.90;;;8.70;99.90;;;;;;4952849;28;20401;-75
2022/04/25 04:07:26;;;;;;;27.45;24.58;;;8.70;99.90;;;;;;4942118;28;20449;-76
2022/04/25 04:09:52;;;;;;;28.85;25.23;;;8.70;99.90;;;;;;4946261;28;20022;-75
2022/04/25 04:12:19;;;;;;;26.65;23.83;;;8.80;99.90;;;;;;4961026;28;20062;-75
2022/04/25 04:14:46;;;;;;;27.70;23.60;;;8.80;99.90;;;;;;4960617;28;20027;-77
2022/04/25 04:17:13;;;;;;;28.85;25.17;;;8.80;99.90;;;;;;4941598;29;20039;-76
2022/04/25 04:19:39;;;;;;;31.95;24.95;;;8.80;99.90;;;;;;4958660;28;20027;-76
2022/04/25 04:22:08;;;;;;;27.48;24.67;;;8.80;99.90;;;;;;4951373;28;20114;-75
2022/04/25 04:24:37;;;;;;;27.75;24.85;;;8.80;99.90;;;;;;4950963;28;20020;-75
2022/04/25 04:27:04;;;;;;;30.10;25.45;;;8.80;99.90;;;;;;4940200;29;20127;-76
2022/04/25 04:29:30;;;;;;;28.02;24.98;;;8.90;99.90;;;;;;4948508;28;20452;-75
2022/04/25 04:32:01;;;;;;;27.55;24.70;;;8.90;99.90;;;;;;4958588;28;20486;-76
2022/04/25 04:34:27;;;;;;;26.50;23.10;;;9.00;99.90;;;;;;4934180;29;20079;-76
2022/04/25 04:36:53;;;;;;;27.73;24.92;;;9.00;99.90;;;;;;4955090;28;20138;-76
2022/04/25 04:39:19;;;;;;;27.33;23.77;;;9.00;99.90;;;;;;4958985;28;20430;-77
2022/04/25 04:41:45;;;;;;;27.33;23.90;;;9.00;99.90;;;;;;4935110;29;20031;-76
2022/04/25 04:44:11;;;;;;;27.35;24.48;;;9.10;99.90;;;;;;4949340;28;20027;-76
2022/04/25 04:46:37;;;;;;;27.13;24.27;;;9.10;99.90;;;;;;4959868;28;20031;-76
2022/04/25 04:49:02;;;;;;;27.10;24.20;;;9.10;99.90;;;;;;4943368;29;20034;-76
2022/04/25 04:51:28;;;;;;;27.58;24.67;;;9.10;99.90;;;;;;4960508;28;20106;-75
2022/04/25 04:53:54;;;;;;;28.05;24.27;;;9.20;99.90;;;;;;4955019;28;20031;-76
2022/04/25 04:56:19;;;;;;;25.95;23.20;;;9.20;99.90;;;;;;4938658;28;20016;-76
2022/04/25 04:58:45;;;;;;;26.48;23.73;;;9.30;99.90;;;;;;4953537;28;20031;-76
2022/04/25 05:01:11;;;;;;;28.73;25.00;;;9.40;99.90;;;;;;4954092;28;20027;-76
2022/04/25 05:03:41;;;;;;;25.55;22.83;;;9.40;99.90;;;;;;4954604;28;20022;-76
2022/04/25 05:06:07;;;;;;;26.23;23.42;;;9.50;99.90;;;;;;4956522;28;20110;-76
2022/04/25 05:08:32;;;;;;;26.38;23.23;;;9.60;99.90;;;;;;4952109;28;20131;-75
2022/04/25 05:10:58;;;;;;;25.42;22.73;;;9.70;99.90;;;;;;4950465;28;20694;-76
2022/04/25 05:13:23;;;;;;;25.95;23.33;;;9.70;99.90;;;;;;4954272;28;20031;-76
2022/04/25 05:15:49;;;;;;;25.95;22.92;;;9.70;99.90;;;;;;4954283;28;20031;-76
2022/04/25 05:18:15;;;;;;;27.98;24.98;;;9.80;99.90;;;;;;4954799;28;20742;-75
2022/04/25 05:20:41;;;;;;;26.50;23.70;;;9.80;99.90;;;;;;4938513;28;20493;-75
2022/04/25 05:23:10;;;;;;;23.38;20.90;;;9.80;99.90;;;;;;4955643;28;20038;-78
2022/04/25 05:25:38;;;;;;;25.17;22.50;;;9.80;99.90;;;;;;4951790;28;20078;-76
2022/04/25 05:28:05;;;;;;;26.13;21.88;;;9.80;99.90;;;;;;4956434;28;20023;-76
2022/04/25 05:30:31;;;;;;;24.15;20.52;;;9.80;99.90;;;;;;4940406;28;20401;-75
2022/04/25 05:33:02;;;;;;;23.23;20.80;;;9.80;99.90;;;;;;4952207;28;20027;-76
2022/04/25 05:35:33;;;;;;;23.88;21.40;;;9.80;99.90;;;;;;4943873;28;20027;-75
2022/04/25 05:37:59;;;;;;;26.20;22.20;;;9.90;99.90;;;;;;4939691;28;20047;-76
2022/04/25 05:40:25;;;;;;;24.02;21.63;;;10.10;99.90;;;;;;4954240;28;20019;-75
2022/04/25 05:42:51;;;;;;;23.45;21.05;;;10.20;99.90;;;;;;4950052;28;20034;-76
2022/04/25 05:45:20;;;;;;;23.83;21.52;;;10.30;99.90;;;;;;4956920;28;20042;-76
2022/04/25 05:47:46;;;;;;;23.55;21.13;;;10.40;99.90;;;;;;4954836;28;20042;-76
2022/04/25 05:52:58;;;;;;;24.48;22.08;;;10.60;99.90;;;;;;4957832;28;20079;-76
2022/04/25 05:55:24;;;;;;;23.92;21.45;;;10.70;99.90;;;;;;4957006;28;20020;-76
2022/04/25 05:57:50;;;;;;;23.63;21.33;;;10.80;99.90;;;;;;4955947;28;20113;-76
2022/04/25 06:00:17;;;;;;;23.85;21.52;;;11.00;99.90;;;;;;4952801;28;20669;-76
2022/04/25 06:02:44;;;;;;;22.13;19.95;;;11.30;99.90;;;;;;4951496;28;20085;-74
2022/04/25 06:05:11;;;;;;;20.85;18.83;;;11.30;99.90;;;;;;4952892;28;20102;-76
2022/04/25 06:07:36;;;;;;;21.55;19.38;;;11.40;99.90;;;;;;4933329;28;20051;-76
2022/04/25 06:10:04;;;;;;;21.52;19.20;;;11.50;99.90;;;;;;4953079;28;20063;-76
2022/04/25 06:12:29;;;;;;;21.45;19.15;;;11.60;99.90;;;;;;4949385;28;20024;-76
2022/04/25 06:14:56;;;;;;;20.52;18.63;;;11.80;99.90;;;;;;4950125;28;20034;-77
2022/04/25 06:17:22;;;;;;;19.80;17.75;;;11.90;99.90;;;;;;4952635;28;20107;-77
2022/04/25 06:19:48;;;;;;;20.08;17.30;;;12.00;99.90;;;;;;4937896;28;20506;-77
2022/04/25 06:22:13;;;;;;;19.30;17.42;;;12.00;99.90;;;;;;4953198;28;20129;-77
2022/04/25 06:24:39;;;;;;;17.77;16.00;;;12.10;99.90;;;;;;4956460;28;20462;-76
2022/04/25 06:27:08;;;;;;;19.17;17.38;;;12.40;99.90;;;;;;4956460;28;20413;-76
2022/04/25 06:29:33;;;;;;;18.50;16.55;;;12.60;99.90;;;;;;4940580;29;20034;-76
2022/04/25 06:32:02;;;;;;;20.33;18.42;;;12.70;99.90;;;;;;4954550;28;20019;-76
2022/04/25 06:34:28;;;;;;;18.48;16.67;;;12.70;99.90;;;;;;4949402;28;20390;-75
2022/04/25 06:36:53;;;;;;;19.20;17.40;;;12.70;99.90;;;;;;4953616;28;20035;-76
2022/04/25 06:39:19;;;;;;;18.05;16.33;;;12.70;99.90;;;;;;4957780;28;20106;-76
2022/04/25 06:41:45;;;;;;;19.10;17.23;;;12.90;99.90;;;;;;4953727;28;20083;-76
2022/04/25 06:44:16;;;;;;;18.67;16.95;;;13.00;99.90;;;;;;5118617;27;20466;-76
2022/04/25 06:46:43;;;;;;;18.95;16.95;;;13.70;99.90;;;;;;5104579;28;20119;-76
2022/04/25 06:49:21;;;;;;;17.75;16.15;;;13.30;99.90;;;;;;5085311;28;20121;-75
2022/04/25 06:51:52;;;;;;;15.32;13.93;;;13.40;99.90;;;;;;5085619;28;20111;-76
2022/04/25 06:54:18;;;;;;;16.73;15.20;;;13.40;99.90;;;;;;5087564;28;20039;-76
2022/04/25 06:56:44;;;;;;;14.77;13.48;;;13.20;99.90;;;;;;5094158;28;20028;-77
2022/04/25 06:59:09;;;;;;;15.43;14.07;;;13.00;99.90;;;;;;5088401;28;20085;-77
2022/04/25 07:01:36;;;;;;;15.77;14.38;;;13.00;99.90;;;;;;5090851;28;20020;-76
2022/04/25 07:04:02;;;;;;;19.55;15.02;;;12.90;99.90;;;;;;5092905;28;20107;-76
2022/04/25 07:06:28;;;;;;;14.45;13.18;;;12.90;99.90;;;;;;5086060;28;20044;-76
2022/04/25 07:08:54;;;;;;;15.88;14.43;;;12.90;99.90;;;;;;5086376;28;20073;-75
2022/04/25 07:11:19;;;;;;;15.00;13.60;;;13.10;99.90;;;;;;5091852;28;20024;-77
2022/04/25 07:13:45;;;;;;;14.55;13.20;;;13.50;99.90;;;;;;5086488;28;20119;-75
2022/04/25 07:16:14;;;;;;;14.77;13.45;;;13.50;99.90;;;;;;5084881;28;20431;-76
2022/04/25 07:18:41;;;;;;;14.48;13.07;;;13.40;99.90;;;;;;5084208;28;20024;-76
2022/04/25 07:29:20;;;;;;;14.25;12.77;;;13.40;99.90;;;;;;5088076;28;20027;-76
2022/04/25 07:31:47;;;;;;;14.43;13.23;;;13.60;99.90;;;;;;5082782;28;20016;-75
2022/04/25 07:34:12;;;;;;;14.43;13.23;;;14.00;99.90;;;;;;5083953;28;20111;-75
2022/04/25 07:36:38;;;;;;;14.95;13.45;;;13.90;99.90;;;;;;5083311;28;20453;-74
2022/04/25 07:39:04;;;;;;;13.63;12.32;;;14.40;99.90;;;;;;5082261;28;20047;-75
2022/04/25 07:41:29;;;;;;;14.25;13.00;;;15.20;99.90;;;;;;5085706;28;20031;-75
2022/04/25 07:43:55;;;;;;;13.90;12.70;;;15.90;99.90;;;;;;5083309;28;20067;-75
2022/04/25 07:46:23;;;;;;;13.90;12.60;;;15.90;99.90;;;;;;5086481;28;20062;-75
2022/04/25 07:48:49;;;;;;;14.30;13.05;;;15.30;99.90;;;;;;5088194;28;20020;-75
2022/04/25 07:51:15;;;;;;;13.00;11.90;;;15.30;99.90;;;;;;5086321;28;20119;-74
2022/04/25 07:53:41;;;;;;;13.95;12.57;;;15.90;99.90;;;;;;5085608;28;20111;-76
2022/04/25 07:56:07;;;;;;;13.70;12.40;;;15.90;99.90;;;;;;5068571;28;20079;-74
2022/04/25 07:58:34;;;;;;;14.95;13.38;;;16.00;99.90;;;;;;5072697;28;20719;-75
2022/04/25 08:01:00;;;;;;;13.95;12.57;;;16.00;99.90;;;;;;5064658;28;20377;-75
2022/04/25 08:03:26;;;;;;;13.50;12.30;;;15.70;99.90;;;;;;5070784;28;20050;-75
2022/04/25 08:05:51;;;;;;;13.48;12.13;;;15.30;99.90;;;;;;5068661;28;20043;-74
2022/04/25 08:08:17;;;;;;;14.23;12.98;;;15.80;99.90;;;;;;5072875;28;20175;-75
2022/04/25 08:10:43;;;;;;;12.63;11.43;;;16.10;99.90;;;;;;5076875;28;20016;-75
2022/04/25 08:18:36;;;;;;;12.70;11.60;;;15.20;99.90;;;;;;5067554;28;20413;-74
2022/04/25 08:21:02;;;;;;;12.52;11.43;;;16.20;99.90;;;;;;5079261;28;20024;-75
2022/04/25 08:23:27;;;;;;;12.93;11.73;;;16.20;99.90;;;;;;5070111;28;22590;-75
2022/04/25 08:25:53;;;;;;;13.23;12.02;;;16.00;99.90;;;;;;5075434;28;20075;-76
2022/04/25 08:28:19;;;;;;;13.25;11.55;;;16.00;99.90;;;;;;5073482;28;20421;-74
2022/04/25 08:30:46;;;;;;;12.88;11.73;;;15.20;99.90;;;;;;5073524;28;20455;-75
2022/04/25 08:33:12;;;;;;;13.50;12.30;;;14.80;99.90;;;;;;5069763;28;20032;-75
2022/04/25 08:35:38;;;;;;;14.38;12.95;;;15.50;99.90;;;;;;5070812;28;20404;-75
2022/04/25 08:38:04;;;;;;;13.07;11.90;;;15.50;99.90;;;;;;5072139;28;20509;-74
2022/04/25 08:40:29;;;;;;;13.68;12.38;;;15.10;99.90;;;;;;5069830;28;20028;-75
2022/04/25 08:42:57;;;;;;;13.55;12.35;;;15.30;99.90;;;;;;5075493;28;20060;-75
2022/04/25 08:45:23;;;;;;;13.38;12.18;;;15.10;99.90;;;;;;5071120;28;20119;-77
2022/04/25 08:47:52;;;;;;;13.98;12.68;;;15.00;99.90;;;;;;5072439;28;20033;-78
2022/04/25 08:50:18;;;;;;;14.07;12.60;;;14.60;99.90;;;;;;5070284;28;20033;-77
2022/04/25 08:52:44;;;;;;;14.13;12.82;;;14.30;99.90;;;;;;5062736;28;20032;-77
2022/04/25 08:55:10;;;;;;;14.70;12.73;;;14.40;99.90;;;;;;5070046;28;20218;-77
2022/04/25 08:57:36;;;;;;;15.15;13.75;;;14.30;99.90;;;;;;5072490;28;20025;-78
2022/04/25 09:00:04;;;;;;;14.18;12.90;;;14.40;99.90;;;;;;5071104;28;20029;-76
2022/04/25 09:02:30;;;;;;;15.10;13.73;;;14.60;99.90;;;;;;5072785;28;20254;-77
2022/04/25 09:04:56;;;;;;;13.82;12.52;;;14.90;99.90;;;;;;5071159;28;20426;-77
2022/04/25 09:07:22;;;;;;;14.27;12.82;;;14.70;99.90;;;;;;5071650;28;20035;-78
2022/04/25 09:09:48;;;;;;;13.80;12.52;;;15.10;99.90;;;;;;5070192;28;20013;-77
2022/04/25 09:12:14;;;;;;;13.43;12.30;;;15.00;99.90;;;;;;5065687;28;20408;-78
2022/04/25 09:14:42;;;;;;;13.10;11.95;;;14.70;99.90;;;;;;5070786;28;20032;-76
2022/04/25 09:17:08;;;;;;;14.30;13.10;;;14.70;99.90;;;;;;5074090;28;20119;-78
2022/04/25 09:19:36;;;;;;;15.13;13.77;;;15.40;99.90;;;;;;5071023;28;20033;-77
2022/04/25 09:22:02;;;;;;;13.00;11.90;;;15.90;99.90;;;;;;5068761;28;20029;-77
2022/04/25 09:24:32;;;;;;;13.70;12.23;;;16.30;99.90;;;;;;5068390;28;20020;-77
2022/04/25 09:27:07;;;;;;;13.02;11.82;;;16.20;99.90;;;;;;5071656;28;20020;-78
2022/04/25 09:29:33;;;;;;;13.05;11.85;;;16.30;99.90;;;;;;5072082;28;20585;-77
2022/04/25 09:31:59;;;;;;;13.85;12.60;;;16.00;99.90;;;;;;5071654;28;20028;-76
2022/04/25 09:37:09;;;;;;;12.65;11.45;;;15.60;99.90;;;;;;5072747;28;20047;-76
2022/04/25 09:39:36;;;;;;;13.52;12.27;;;15.30;99.90;;;;;;5069984;28;20477;-77
2022/04/25 09:42:02;;;;;;;12.80;11.50;;;15.10;99.90;;;;;;5067542;28;20025;-77
2022/04/25 09:44:30;;;;;;;12.50;11.32;;;15.00;99.90;;;;;;5070054;28;20029;-77
2022/04/25 09:46:56;;;;;;;12.13;10.90;;;15.10;99.90;;;;;;5064413;28;20021;-77
2022/04/25 09:49:21;;;;;;;13.95;12.32;;;15.90;99.90;;;;;;5077267;28;20107;-77
2022/04/25 09:52:04;;;;;;;12.60;11.45;;;15.90;99.90;;;;;;5071676;28;20016;-78
2022/04/25 09:54:30;;;;;;;13.25;12.07;;;15.90;99.90;;;;;;5074411;28;20092;-77
2022/04/25 09:56:56;;;;;;;14.27;11.57;;;16.00;99.90;;;;;;5068688;28;20108;-77
2022/04/25 09:59:22;;;;;;;12.68;11.48;;;16.50;99.90;;;;;;5077535;28;20544;-76
2022/04/25 10:02:06;;;;;;;12.38;11.15;;;17.20;99.90;;;;;;5070797;28;20100;-77
2022/04/25 10:04:38;;;;;;;12.05;11.05;;;17.10;99.90;;;;;;5060996;28;20171;-77
2022/04/25 10:07:05;;;;;;;13.18;11.32;;;17.50;99.90;;;;;;5069632;28;20013;-76
2022/04/25 10:09:34;;;;;;;14.73;12.30;;;17.60;99.90;;;;;;5070503;28;20488;-76
2022/04/25 10:12:02;;;;;;;13.30;12.18;;;17.10;99.90;;;;;;5064090;28;20481;-76
2022/04/25 10:14:28;;;;;;;13.20;11.65;;;16.90;99.90;;;;;;5071450;28;20100;-77
2022/04/25 10:16:56;;;;;;;12.48;11.23;;;16.50;99.90;;;;;;5077872;28;20459;-77
2022/04/25 10:19:23;;;;;;;13.35;12.25;;;16.40;99.90;;;;;;5072589;28;20025;-76
2022/04/25 10:21:52;;;;;;;12.32;11.25;;;15.90;99.90;;;;;;5072230;28;20108;-77
2022/04/25 10:24:18;;;;;;;14.63;13.18;;;15.70;99.90;;;;;;5067472;28;20108;-77
2022/04/25 10:26:46;;;;;;;13.48;12.18;;;16.40;99.90;;;;;;5071128;28;20028;-81
2022/04/25 10:29:17;;;;;;;12.95;11.65;;;16.10;99.90;;;;;;5072048;28;20017;-77
2022/04/25 10:31:45;;;;;;;13.13;11.80;;;16.40;99.90;;;;;;5071232;28;20028;-75
2022/04/25 10:34:14;;;;;;;12.55;11.32;;;16.40;99.90;;;;;;5066939;28;20037;-75
2022/04/25 10:36:39;;;;;;;11.80;10.73;;;16.30;99.90;;;;;;5071349;28;20016;-74
2022/04/25 10:39:17;;;;;;;12.75;11.65;;;16.30;99.90;;;;;;5071798;28;20472;-74
2022/04/25 10:44:46;;;;;;;13.05;11.95;;;17.10;99.90;;;;;;5067283;28;20063;-75
2022/04/25 10:47:12;;;;;;;13.32;11.93;;;17.10;99.90;;;;;;5067179;28;20033;-75
2022/04/25 10:50:08;;;;;;;11.45;10.55;;;17.20;99.90;;;;;;5067217;28;20066;-74
2022/04/25 10:52:34;;;;;;;11.95;10.95;;;17.90;99.90;;;;;;5071398;28;20032;-75
2022/04/25 10:55:23;;;;;;;12.65;11.45;;;18.10;99.70;;;;;;5074035;28;20021;-73
2022/04/25 10:58:03;;;;;;;12.32;11.18;;;17.90;99.30;;;;;;5066182;28;20044;-75
2022/04/25 11:00:41;;;;;;;12.75;11.48;;;17.20;99.90;;;;;;5075100;28;20449;-75
2022/04/25 11:03:15;;;;;;;12.38;10.75;;;16.40;99.90;;;;;;5065540;28;20488;-74
2022/04/25 11:05:43;;;;;;;12.20;11.02;;;16.10;99.90;;;;;;5063747;28;20024;-72
2022/04/25 11:08:20;;;;;;;10.55;9.65;;;16.10;99.90;;;;;;5067232;28;20473;-74
2022/04/25 11:10:49;;;;;;;11.60;10.40;;;17.00;99.90;;;;;;5065057;28;20025;-74
2022/04/25 11:13:19;;;;;;;11.13;10.25;;;17.80;99.70;;;;;;5069326;28;20021;-74
2022/04/25 11:15:52;;;;;;;10.48;9.57;;;17.60;99.70;;;;;;5069200;28;20059;-75
2022/04/25 11:18:33;;;;;;;10.90;9.90;;;17.20;99.70;;;;;;5069473;28;20183;-74
2022/04/25 11:21:09;;;;;;;11.43;10.35;;;16.90;99.90;;;;;;5067436;28;20143;-74
2022/04/25 11:23:47;;;;;;;11.02;10.13;;;16.90;99.90;;;;;;5067890;28;20024;-73
2022/04/25 11:26:25;;;;;;;10.95;10.00;;;16.90;99.90;;;;;;5070651;28;20507;-75
2022/04/25 11:29:03;;;;;;;10.57;9.68;;;17.20;99.10;;;;;;5065184;28;20031;-75
2022/04/25 11:31:32;;;;;;;11.18;10.05;;;16.70;99.90;;;;;;5070711;28;20024;-74
2022/04/25 11:34:01;;;;;;;11.32;10.32;;;16.50;99.90;;;;;;5075906;28;20024;-74
2022/04/25 11:36:27;;;;;;;11.38;10.20;;;16.40;99.90;;;;;;5076215;28;20032;-74
2022/04/25 11:41:39;;;;;;;10.27;9.38;;;17.10;99.90;;;;;;5074151;28;20020;-74
2022/04/25 11:44:05;;;;;;;10.57;9.65;;;16.80;99.80;;;;;;5071528;28;20025;-75
2022/04/25 11:46:37;;;;;;;11.98;10.98;;;16.50;99.90;;;;;;5074194;28;20032;-74
2022/04/25 11:49:04;;;;;;;10.73;9.82;;;16.20;99.90;;;;;;5073593;28;20038;-74
2022/04/25 11:51:38;;;;;;;11.13;10.07;;;15.80;99.90;;;;;;5078808;28;20027;-75
2022/04/25 11:54:09;;;;;;;11.80;10.65;;;15.70;99.90;;;;;;5075400;28;20033;-74
2022/04/25 11:56:37;;;;;;;11.65;10.68;;;15.60;99.90;;;;;;5072306;28;20047;-74
2022/04/25 11:59:08;;;;;;;14.18;12.88;;;15.40;99.90;;;;;;5072770;28;20031;-74
2022/04/25 12:01:40;;;;;;;14.05;12.85;;;15.30;99.90;;;;;;5068119;28;20366;-76
2022/04/25 12:04:35;;;;;;;14.18;12.88;;;15.40;99.90;;;;;;5064840;28;20396;-74
2022/04/25 12:07:09;;;;;;;13.90;12.80;;;15.10;99.90;;;;;;5073418;28;20028;-74
2022/04/25 12:15:40;;;;;;;15.05;13.68;;;13.80;99.90;;;;;;5072099;28;20054;-75
2022/04/25 12:18:21;;;;;;;15.02;13.73;;;13.70;99.90;;;;;;5072330;28;20166;-75
2022/04/25 12:20:49;;;;;;;16.02;14.43;;;13.60;99.90;;;;;;5071996;28;20028;-75
2022/04/25 12:23:36;;;;;;;16.10;14.60;;;13.70;99.90;;;;;;5072848;28;20563;-74
2022/04/25 12:26:03;;;;;;;15.63;14.23;;;13.60;99.90;;;;;;5072171;28;20021;-75
2022/04/25 12:28:31;;;;;;;14.80;13.40;;;13.50;99.90;;;;;;5073519;28;20039;-74
2022/04/25 12:31:04;;;;;;;15.60;14.15;;;13.60;99.90;;;;;;5072952;28;20023;-74
2022/04/25 12:33:35;;;;;;;15.27;13.68;;;13.60;99.90;;;;;;5081310;28;20436;-74
2022/04/25 12:36:11;;;;;;;15.25;14.00;;;13.80;99.90;;;;;;5070617;28;20025;-75
2022/04/25 12:38:40;;;;;;;15.68;14.15;;;13.90;99.90;;;;;;5071214;28;20077;-74
2022/04/25 12:41:07;;;;;;;14.55;13.30;;;14.00;99.90;;;;;;5073220;28;20020;-74
2022/04/25 12:43:37;;;;;;;14.98;13.60;;;14.10;99.90;;;;;;5078188;28;20036;-74
2022/04/25 12:46:03;;;;;;;17.33;15.57;;;14.20;99.90;;;;;;5071123;28;20388;-74
2022/04/25 12:48:29;;;;;;;15.80;14.15;;;14.50;99.90;;;;;;5068069;28;20013;-74
2022/04/25 12:50:54;;;;;;;15.30;14.00;;;14.60;99.90;;;;;;5071930;28;20126;-75
2022/04/25 12:53:40;;;;;;;15.63;14.32;;;14.80;99.90;;;;;;5073137;28;20443;-74
2022/04/25 12:56:06;;;;;;;15.32;14.02;;;14.80;99.90;;;;;;5064674;28;20633;-74
2022/04/25 12:58:33;;;;;;;15.20;13.85;;;14.80;99.90;;;;;;5072812;28;20502;-75
2022/04/25 13:00:59;;;;;;;15.50;14.15;;;14.80;99.90;;;;;;5071857;28;20024;-74
2022/04/25 13:03:26;;;;;;;14.82;13.55;;;15.00;99.90;;;;;;5072484;28;20029;-74
2022/04/25 13:05:53;;;;;;;14.98;13.52;;;15.00;99.90;;;;;;5068491;28;20013;-74
2022/04/25 13:08:19;;;;;;;16.35;14.95;;;15.10;99.90;;;;;;5066937;28;20024;-74
2022/04/25 13:10:45;;;;;;;14.25;13.00;;;15.60;99.90;;;;;;5072823;28;20023;-75